sensor_id;sensor_type;location;lat;lon;timestamp;temperature;humidity
75821;DHT22;64454;51.984;9.838;2022-11-15T00:02:26;12.50;1.00
75821;DHT22;64454;51.984;9.838;2022-11-15T00:04:54;12.50;1.00
75821;DHT22;64454;51.984;9.838;2022-11-15T00:07:21;12.60;1.00
75821;DHT22;64454;51.984;9.838;2022-11-15T00:09:48;12.60;1.00
75821;DHT22;64454;51.984;9.838;2022-11-15T00:12:15;12.70;1.00
75821;DHT22;64454;51.984;9.838;2022-11-15T00:14:42;12.70;1.00
75821;DHT22;64454;51.984;9.838;2022-11-15T00:17:09;12.70;1.00
75821;DHT22;64454;51.984;9.838;2022-11-15T00:19:36;12.80;1.00
75821;DHT22;64454;51.984;9.838;2022-11-15T00:22:04;12.90;1.00
75821;DHT22;64454;51.984;9.838;2022-11-15T00:24:31;12.90;1.00
75821;DHT22;64454;51.984;9.838;2022-11-15T00:26:57;12.90;1.00
75821;DHT22;64454;51.984;9.838;2022-11-15T00:29:24;12.90;1.00
75821;DHT22;64454;51.984;9.838;2022-11-15T00:31:52;13.00;1.00
75821;DHT22;64454;51.984;9.838;2022-11-15T00:34:19;13.00;1.00
75821;DHT22;64454;51.984;9.838;2022-11-15T00:36:46;13.00;1.00
75821;DHT22;64454;51.984;9.838;2022-11-15T00:39:14;13.00;1.00
75821;DHT22;64454;51.984;9.838;2022-11-15T00:41:41;12.90;1.00
75821;DHT22;64454;51.984;9.838;2022-11-15T00:44:08;12.90;1.00
75821;DHT22;64454;51.984;9.838;2022-11-15T00:46:35;13.00;1.00
75821;DHT22;64454;51.984;9.838;2022-11-15T00:49:02;13.00;1.00
75821;DHT22;64454;51.984;9.838;2022-11-15T00:51:29;13.00;1.00
75821;DHT22;64454;51.984;9.838;2022-11-15T00:53:56;13.00;1.00
75821;DHT22;64454;51.984;9.838;2022-11-15T00:56:25;12.90;1.00
75821;DHT22;64454;51.984;9.838;2022-11-15T00:58:52;12.90;1.00
75821;DHT22;64454;51.984;9.838;2022-11-15T01:01:19;12.90;1.00
75821;DHT22;64454;51.984;9.838;2022-11-15T01:03:46;12.90;1.00
75821;DHT22;64454;51.984;9.838;2022-11-15T01:06:13;12.90;1.00
75821;DHT22;64454;51.984;9.838;2022-11-15T01:08:40;12.90;1.00
75821;DHT22;64454;51.984;9.838;2022-11-15T01:11:09;13.00;1.00
75821;DHT22;64454;51.984;9.838;2022-11-15T01:13:39;13.00;1.00
75821;DHT22;64454;51.984;9.838;2022-11-15T01:16:08;13.00;1.00
75821;DHT22;64454;51.984;9.838;2022-11-15T01:18:37;13.10;1.00
75821;DHT22;64454;51.984;9.838;2022-11-15T01:21:08;13.10;1.00
75821;DHT22;64454;51.984;9.838;2022-11-15T01:23:36;13.00;1.00
75821;DHT22;64454;51.984;9.838;2022-11-15T01:26:05;12.90;1.00
75821;DHT22;64454;51.984;9.838;2022-11-15T01:28:37;12.80;1.00
75821;DHT22;64454;51.984;9.838;2022-11-15T01:31:11;12.80;1.00
75821;DHT22;64454;51.984;9.838;2022-11-15T01:33:39;12.80;1.00
75821;DHT22;64454;51.984;9.838;2022-11-15T01:36:08;12.70;1.00
75821;DHT22;64454;51.984;9.838;2022-11-15T01:38:38;12.70;1.00
75821;DHT22;64454;51.984;9.838;2022-11-15T01:41:05;12.80;1.00
75821;DHT22;64454;51.984;9.838;2022-11-15T01:43:34;12.80;1.00
75821;DHT22;64454;51.984;9.838;2022-11-15T01:46:08;12.90;1.00
75821;DHT22;64454;51.984;9.838;2022-11-15T01:48:50;12.80;1.00
75821;DHT22;64454;51.984;9.838;2022-11-15T01:51:20;12.80;1.00
75821;DHT22;64454;51.984;9.838;2022-11-15T01:53:53;12.80;1.00
75821;DHT22;64454;51.984;9.838;2022-11-15T01:56:25;12.80;1.00
75821;DHT22;64454;51.984;9.838;2022-11-15T01:58:56;12.80;1.00
75821;DHT22;64454;51.984;9.838;2022-11-15T02:01:28;12.80;1.00
75821;DHT22;64454;51.984;9.838;2022-11-15T02:03:59;12.90;1.00
75821;DHT22;64454;51.984;9.838;2022-11-15T02:06:30;12.90;1.00
75821;DHT22;64454;51.984;9.838;2022-11-15T02:08:59;12.90;1.00
75821;DHT22;64454;51.984;9.838;2022-11-15T02:11:26;12.90;1.00
75821;DHT22;64454;51.984;9.838;2022-11-15T02:13:55;12.90;1.00
75821;DHT22;64454;51.984;9.838;2022-11-15T02:16:31;12.80;1.00
75821;DHT22;64454;51.984;9.838;2022-11-15T02:19:21;12.80;1.00
75821;DHT22;64454;51.984;9.838;2022-11-15T02:22:10;12.80;1.00
75821;DHT22;64454;51.984;9.838;2022-11-15T02:25:03;12.70;1.00
75821;DHT22;64454;51.984;9.838;2022-11-15T02:27:59;12.80;1.00
75821;DHT22;64454;51.984;9.838;2022-11-15T02:30:45;12.80;1.00
75821;DHT22;64454;51.984;9.838;2022-11-15T02:33:27;12.90;1.00
75821;DHT22;64454;51.984;9.838;2022-11-15T02:36:06;12.90;1.00
75821;DHT22;64454;51.984;9.838;2022-11-15T02:38:44;12.90;1.00
75821;DHT22;64454;51.984;9.838;2022-11-15T02:41:25;12.80;1.00
75821;DHT22;64454;51.984;9.838;2022-11-15T02:44:01;12.80;1.00
75821;DHT22;64454;51.984;9.838;2022-11-15T02:46:37;12.70;1.00
75821;DHT22;64454;51.984;9.838;2022-11-15T02:49:25;12.70;1.00
75821;DHT22;64454;51.984;9.838;2022-11-15T02:51:55;12.60;1.00
75821;DHT22;64454;51.984;9.838;2022-11-15T02:54:25;12.60;1.00
75821;DHT22;64454;51.984;9.838;2022-11-15T02:56:59;12.60;1.00
75821;DHT22;64454;51.984;9.838;2022-11-15T03:02:56;12.50;1.00
75821;DHT22;64454;51.984;9.838;2022-11-15T03:05:34;12.50;1.00
75821;DHT22;64454;51.984;9.838;2022-11-15T03:08:08;12.60;1.00
75821;DHT22;64454;51.984;9.838;2022-11-15T03:10:45;12.60;1.00
75821;DHT22;64454;51.984;9.838;2022-11-15T03:13:23;12.50;1.00
75821;DHT22;64454;51.984;9.838;2022-11-15T03:16:00;12.50;1.00
75821;DHT22;64454;51.984;9.838;2022-11-15T03:18:33;12.50;1.00
75821;DHT22;64454;51.984;9.838;2022-11-15T03:21:06;12.50;1.00
75821;DHT22;64454;51.984;9.838;2022-11-15T03:23:39;12.50;1.00
75821;DHT22;64454;51.984;9.838;2022-11-15T03:26:08;12.50;1.00
75821;DHT22;64454;51.984;9.838;2022-11-15T03:28:41;12.50;1.00
75821;DHT22;64454;51.984;9.838;2022-11-15T03:31:15;12.50;1.00
75821;DHT22;64454;51.984;9.838;2022-11-15T03:34:06;12.50;1.00
75821;DHT22;64454;51.984;9.838;2022-11-15T03:36:38;12.50;1.00
75821;DHT22;64454;51.984;9.838;2022-11-15T03:39:07;12.50;1.00
75821;DHT22;64454;51.984;9.838;2022-11-15T03:41:39;12.60;1.00
75821;DHT22;64454;51.984;9.838;2022-11-15T03:44:15;12.60;1.00
75821;DHT22;64454;51.984;9.838;2022-11-15T03:46:56;12.70;1.00
75821;DHT22;64454;51.984;9.838;2022-11-15T03:49:33;12.70;1.00
75821;DHT22;64454;51.984;9.838;2022-11-15T03:52:02;12.80;1.00
75821;DHT22;64454;51.984;9.838;2022-11-15T03:54:31;12.80;1.00
75821;DHT22;64454;51.984;9.838;2022-11-15T03:56:58;12.90;1.00
75821;DHT22;64454;51.984;9.838;2022-11-15T03:59:27;12.80;1.00
75821;DHT22;64454;51.984;9.838;2022-11-15T04:01:54;12.90;1.00
75821;DHT22;64454;51.984;9.838;2022-11-15T04:04:21;12.90;1.00
75821;DHT22;64454;51.984;9.838;2022-11-15T04:06:49;12.90;1.00
75821;DHT22;64454;51.984;9.838;2022-11-15T04:09:16;12.90;1.00
75821;DHT22;64454;51.984;9.838;2022-11-15T04:11:43;12.90;1.00
75821;DHT22;64454;51.984;9.838;2022-11-15T04:14:10;13.00;1.00
75821;DHT22;64454;51.984;9.838;2022-11-15T04:16:37;13.00;1.00
75821;DHT22;64454;51.984;9.838;2022-11-15T04:19:04;13.00;1.00
75821;DHT22;64454;51.984;9.838;2022-11-15T04:21:50;12.90;1.00
75821;DHT22;64454;51.984;9.838;2022-11-15T04:24:35;12.90;1.00
75821;DHT22;64454;51.984;9.838;2022-11-15T04:27:01;12.90;1.00
75821;DHT22;64454;51.984;9.838;2022-11-15T04:29:28;12.90;1.00
75821;DHT22;64454;51.984;9.838;2022-11-15T04:32:02;12.90;1.00
75821;DHT22;64454;51.984;9.838;2022-11-15T04:34:30;12.90;1.00
75821;DHT22;64454;51.984;9.838;2022-11-15T04:36:58;12.80;1.00
75821;DHT22;64454;51.984;9.838;2022-11-15T04:39:42;12.70;1.00
75821;DHT22;64454;51.984;9.838;2022-11-15T04:42:10;12.80;1.00
75821;DHT22;64454;51.984;9.838;2022-11-15T04:44:37;12.70;1.00
75821;DHT22;64454;51.984;9.838;2022-11-15T04:47:04;12.70;1.00
75821;DHT22;64454;51.984;9.838;2022-11-15T04:49:31;12.70;1.00
75821;DHT22;64454;51.984;9.838;2022-11-15T04:52:00;12.80;1.00
75821;DHT22;64454;51.984;9.838;2022-11-15T04:54:26;12.80;1.00
75821;DHT22;64454;51.984;9.838;2022-11-15T04:56:53;12.90;1.00
75821;DHT22;64454;51.984;9.838;2022-11-15T04:59:20;13.00;1.00
75821;DHT22;64454;51.984;9.838;2022-11-15T05:01:47;13.00;1.00
75821;DHT22;64454;51.984;9.838;2022-11-15T05:04:14;13.10;1.00
75821;DHT22;64454;51.984;9.838;2022-11-15T05:06:48;13.20;1.00
75821;DHT22;64454;51.984;9.838;2022-11-15T05:09:17;13.20;1.00
75821;DHT22;64454;51.984;9.838;2022-11-15T05:11:46;13.10;1.00
75821;DHT22;64454;51.984;9.838;2022-11-15T05:14:13;13.20;1.00
75821;DHT22;64454;51.984;9.838;2022-11-15T05:16:41;13.20;1.00
75821;DHT22;64454;51.984;9.838;2022-11-15T05:19:08;13.10;1.00
75821;DHT22;64454;51.984;9.838;2022-11-15T05:21:36;13.10;1.00
75821;DHT22;64454;51.984;9.838;2022-11-15T05:24:04;13.00;1.00
75821;DHT22;64454;51.984;9.838;2022-11-15T05:26:33;13.10;1.00
75821;DHT22;64454;51.984;9.838;2022-11-15T05:28:59;13.00;1.00
75821;DHT22;64454;51.984;9.838;2022-11-15T05:31:27;13.00;1.00
75821;DHT22;64454;51.984;9.838;2022-11-15T05:33:55;12.90;1.00
75821;DHT22;64454;51.984;9.838;2022-11-15T05:36:29;12.90;1.00
75821;DHT22;64454;51.984;9.838;2022-11-15T05:39:00;12.90;1.00
75821;DHT22;64454;51.984;9.838;2022-11-15T05:41:31;12.80;1.00
75821;DHT22;64454;51.984;9.838;2022-11-15T05:44:02;12.70;1.00
75821;DHT22;64454;51.984;9.838;2022-11-15T05:46:33;12.70;1.00
75821;DHT22;64454;51.984;9.838;2022-11-15T05:49:01;12.70;1.00
75821;DHT22;64454;51.984;9.838;2022-11-15T05:51:28;12.70;1.00
75821;DHT22;64454;51.984;9.838;2022-11-15T05:53:56;12.70;1.00
75821;DHT22;64454;51.984;9.838;2022-11-15T05:56:25;12.70;1.00
75821;DHT22;64454;51.984;9.838;2022-11-15T05:58:55;12.70;1.00
75821;DHT22;64454;51.984;9.838;2022-11-15T06:01:25;12.70;1.00
75821;DHT22;64454;51.984;9.838;2022-11-15T06:03:53;12.70;1.00
75821;DHT22;64454;51.984;9.838;2022-11-15T06:06:20;12.60;1.00
75821;DHT22;64454;51.984;9.838;2022-11-15T06:08:47;12.60;1.00
75821;DHT22;64454;51.984;9.838;2022-11-15T06:11:14;12.60;1.00
75821;DHT22;64454;51.984;9.838;2022-11-15T06:13:41;12.60;1.00
75821;DHT22;64454;51.984;9.838;2022-11-15T06:16:09;12.50;1.00
75821;DHT22;64454;51.984;9.838;2022-11-15T06:18:36;12.40;1.00
75821;DHT22;64454;51.984;9.838;2022-11-15T06:21:04;12.30;1.00
75821;DHT22;64454;51.984;9.838;2022-11-15T06:23:32;12.30;1.00
75821;DHT22;64454;51.984;9.838;2022-11-15T06:26:02;12.20;1.00
75821;DHT22;64454;51.984;9.838;2022-11-15T06:28:29;12.10;1.00
75821;DHT22;64454;51.984;9.838;2022-11-15T06:31:02;12.10;1.00
75821;DHT22;64454;51.984;9.838;2022-11-15T06:33:31;12.10;1.00
75821;DHT22;64454;51.984;9.838;2022-11-15T06:36:00;12.00;1.00
75821;DHT22;64454;51.984;9.838;2022-11-15T06:38:29;12.00;1.00
75821;DHT22;64454;51.984;9.838;2022-11-15T06:41:01;11.90;2.60
75821;DHT22;64454;51.984;9.838;2022-11-15T06:43:28;11.90;3.90
75821;DHT22;64454;51.984;9.838;2022-11-15T06:45:57;12.00;5.30
75821;DHT22;64454;51.984;9.838;2022-11-15T06:48:24;12.00;2.70
75821;DHT22;64454;51.984;9.838;2022-11-15T06:50:53;12.00;2.00
75821;DHT22;64454;51.984;9.838;2022-11-15T06:53:20;12.00;2.50
75821;DHT22;64454;51.984;9.838;2022-11-15T06:55:48;12.10;2.50
75821;DHT22;64454;51.984;9.838;2022-11-15T06:58:15;12.10;1.00
75821;DHT22;64454;51.984;9.838;2022-11-15T07:00:42;12.20;1.00
75821;DHT22;64454;51.984;9.838;2022-11-15T07:03:10;12.20;1.00
75821;DHT22;64454;51.984;9.838;2022-11-15T07:05:37;12.20;1.00
75821;DHT22;64454;51.984;9.838;2022-11-15T07:08:05;12.20;1.00
75821;DHT22;64454;51.984;9.838;2022-11-15T07:10:32;12.20;1.00
75821;DHT22;64454;51.984;9.838;2022-11-15T07:12:59;12.30;1.00
75821;DHT22;64454;51.984;9.838;2022-11-15T07:15:26;12.30;1.00
75821;DHT22;64454;51.984;9.838;2022-11-15T07:17:53;12.30;1.00
75821;DHT22;64454;51.984;9.838;2022-11-15T07:20:20;12.30;1.00
75821;DHT22;64454;51.984;9.838;2022-11-15T07:22:47;12.40;1.00
75821;DHT22;64454;51.984;9.838;2022-11-15T07:25:15;12.40;1.00
75821;DHT22;64454;51.984;9.838;2022-11-15T07:27:42;12.40;1.00
75821;DHT22;64454;51.984;9.838;2022-11-15T07:30:10;12.40;1.00
75821;DHT22;64454;51.984;9.838;2022-11-15T07:32:38;12.40;1.00
75821;DHT22;64454;51.984;9.838;2022-11-15T07:35:05;12.30;1.00
75821;DHT22;64454;51.984;9.838;2022-11-15T07:37:32;12.30;1.00
75821;DHT22;64454;51.984;9.838;2022-11-15T07:39:59;12.30;1.00
75821;DHT22;64454;51.984;9.838;2022-11-15T07:42:27;12.30;1.00
75821;DHT22;64454;51.984;9.838;2022-11-15T07:45:14;12.40;1.00
75821;DHT22;64454;51.984;9.838;2022-11-15T07:47:45;12.50;1.00
75821;DHT22;64454;51.984;9.838;2022-11-15T07:50:12;12.60;1.00
75821;DHT22;64454;51.984;9.838;2022-11-15T07:52:39;12.80;1.00
75821;DHT22;64454;51.984;9.838;2022-11-15T07:55:07;13.00;1.00
75821;DHT22;64454;51.984;9.838;2022-11-15T07:57:36;13.10;1.00
75821;DHT22;64454;51.984;9.838;2022-11-15T08:00:03;13.20;1.00
75821;DHT22;64454;51.984;9.838;2022-11-15T08:02:32;13.30;1.00
75821;DHT22;64454;51.984;9.838;2022-11-15T08:04:59;13.30;1.00
75821;DHT22;64454;51.984;9.838;2022-11-15T08:07:28;13.30;1.00
75821;DHT22;64454;51.984;9.838;2022-11-15T08:09:56;13.20;1.00
75821;DHT22;64454;51.984;9.838;2022-11-15T08:12:23;13.20;1.00
75821;DHT22;64454;51.984;9.838;2022-11-15T08:14:52;13.10;1.00
75821;DHT22;64454;51.984;9.838;2022-11-15T08:17:18;13.30;1.00
75821;DHT22;64454;51.984;9.838;2022-11-15T08:19:45;13.50;1.00
75821;DHT22;64454;51.984;9.838;2022-11-15T08:22:13;13.90;1.00
75821;DHT22;64454;51.984;9.838;2022-11-15T08:24:40;14.30;1.00
75821;DHT22;64454;51.984;9.838;2022-11-15T08:27:07;15.10;1.00
75821;DHT22;64454;51.984;9.838;2022-11-15T08:29:40;15.80;1.00
75821;DHT22;64454;51.984;9.838;2022-11-15T08:32:09;16.40;1.00
75821;DHT22;64454;51.984;9.838;2022-11-15T08:34:36;17.20;1.00
75821;DHT22;64454;51.984;9.838;2022-11-15T08:37:03;17.90;1.00
75821;DHT22;64454;51.984;9.838;2022-11-15T08:39:31;18.30;1.00
75821;DHT22;64454;51.984;9.838;2022-11-15T08:41:58;19.40;1.00
75821;DHT22;64454;51.984;9.838;2022-11-15T08:44:25;20.20;1.00
75821;DHT22;64454;51.984;9.838;2022-11-15T08:46:52;20.20;1.00
75821;DHT22;64454;51.984;9.838;2022-11-15T08:49:20;20.60;1.00
75821;DHT22;64454;51.984;9.838;2022-11-15T08:51:47;20.60;1.00
75821;DHT22;64454;51.984;9.838;2022-11-15T08:54:14;20.80;1.00
75821;DHT22;64454;51.984;9.838;2022-11-15T08:56:41;21.20;1.00
75821;DHT22;64454;51.984;9.838;2022-11-15T08:59:08;22.00;1.00
75821;DHT22;64454;51.984;9.838;2022-11-15T09:01:35;22.80;1.00
75821;DHT22;64454;51.984;9.838;2022-11-15T09:04:02;23.10;1.00
75821;DHT22;64454;51.984;9.838;2022-11-15T09:06:31;23.80;1.00
75821;DHT22;64454;51.984;9.838;2022-11-15T09:09:00;24.70;1.00
75821;DHT22;64454;51.984;9.838;2022-11-15T09:11:27;25.50;1.00
75821;DHT22;64454;51.984;9.838;2022-11-15T09:13:54;25.60;1.00
75821;DHT22;64454;51.984;9.838;2022-11-15T09:16:21;25.70;1.00
75821;DHT22;64454;51.984;9.838;2022-11-15T09:18:48;25.60;1.00
75821;DHT22;64454;51.984;9.838;2022-11-15T09:21:15;25.50;1.00
75821;DHT22;64454;51.984;9.838;2022-11-15T09:23:43;26.40;1.00
75821;DHT22;64454;51.984;9.838;2022-11-15T09:26:10;27.10;1.00
75821;DHT22;64454;51.984;9.838;2022-11-15T09:28:37;27.80;1.00
75821;DHT22;64454;51.984;9.838;2022-11-15T09:31:07;28.60;1.00
75821;DHT22;64454;51.984;9.838;2022-11-15T09:33:35;29.10;1.00
75821;DHT22;64454;51.984;9.838;2022-11-15T09:36:04;29.80;1.00
75821;DHT22;64454;51.984;9.838;2022-11-15T09:38:33;31.10;1.00
75821;DHT22;64454;51.984;9.838;2022-11-15T09:41:30;32.10;1.00
75821;DHT22;64454;51.984;9.838;2022-11-15T09:44:18;33.40;1.00
75821;DHT22;64454;51.984;9.838;2022-11-15T09:47:05;33.60;1.00
75821;DHT22;64454;51.984;9.838;2022-11-15T09:49:51;33.30;1.00
75821;DHT22;64454;51.984;9.838;2022-11-15T09:52:19;34.30;1.00
75821;DHT22;64454;51.984;9.838;2022-11-15T09:54:49;33.70;1.00
75821;DHT22;64454;51.984;9.838;2022-11-15T09:57:24;33.30;1.00
75821;DHT22;64454;51.984;9.838;2022-11-15T10:00:06;33.90;1.00
75821;DHT22;64454;51.984;9.838;2022-11-15T10:02:58;34.30;1.00
75821;DHT22;64454;51.984;9.838;2022-11-15T10:05:38;34.80;1.00
75821;DHT22;64454;51.984;9.838;2022-11-15T10:08:13;33.00;1.00
75821;DHT22;64454;51.984;9.838;2022-11-15T10:10:53;33.00;1.00
75821;DHT22;64454;51.984;9.838;2022-11-15T10:13:25;33.00;1.00
75821;DHT22;64454;51.984;9.838;2022-11-15T10:16:02;32.10;1.00
75821;DHT22;64454;51.984;9.838;2022-11-15T10:18:51;31.30;1.00
75821;DHT22;64454;51.984;9.838;2022-11-15T10:21:35;29.80;1.00
75821;DHT22;64454;51.984;9.838;2022-11-15T10:24:12;29.30;1.00
75821;DHT22;64454;51.984;9.838;2022-11-15T10:26:45;26.70;1.00
75821;DHT22;64454;51.984;9.838;2022-11-15T10:29:19;24.00;1.00
75821;DHT22;64454;51.984;9.838;2022-11-15T10:31:46;22.60;1.00
75821;DHT22;64454;51.984;9.838;2022-11-15T10:34:15;21.80;1.00
75821;DHT22;64454;51.984;9.838;2022-11-15T10:36:45;20.70;1.00
75821;DHT22;64454;51.984;9.838;2022-11-15T10:39:13;19.80;1.00
75821;DHT22;64454;51.984;9.838;2022-11-15T10:41:42;19.10;1.00
75821;DHT22;64454;51.984;9.838;2022-11-15T10:44:25;18.30;1.00
75821;DHT22;64454;51.984;9.838;2022-11-15T10:47:24;17.80;1.00
75821;DHT22;64454;51.984;9.838;2022-11-15T10:49:55;17.50;1.00
75821;DHT22;64454;51.984;9.838;2022-11-15T10:52:28;17.30;1.00
75821;DHT22;64454;51.984;9.838;2022-11-15T10:55:01;17.10;1.00
75821;DHT22;64454;51.984;9.838;2022-11-15T10:57:33;17.20;1.00
75821;DHT22;64454;51.984;9.838;2022-11-15T11:00:06;17.30;1.00
75821;DHT22;64454;51.984;9.838;2022-11-15T11:02:57;17.40;1.00
75821;DHT22;64454;51.984;9.838;2022-11-15T11:05:29;17.50;1.00
75821;DHT22;64454;51.984;9.838;2022-11-15T11:08:00;17.50;1.00
75821;DHT22;64454;51.984;9.838;2022-11-15T11:10:29;17.50;1.00
75821;DHT22;64454;51.984;9.838;2022-11-15T11:13:12;17.40;1.00
75821;DHT22;64454;51.984;9.838;2022-11-15T11:15:44;17.40;1.00
75821;DHT22;64454;51.984;9.838;2022-11-15T11:18:25;17.20;1.00
75821;DHT22;64454;51.984;9.838;2022-11-15T11:20:59;17.20;1.00
75821;DHT22;64454;51.984;9.838;2022-11-15T11:23:41;17.30;1.00
75821;DHT22;64454;51.984;9.838;2022-11-15T11:26:30;17.20;1.00
75821;DHT22;64454;51.984;9.838;2022-11-15T11:29:17;17.20;1.00
75821;DHT22;64454;51.984;9.838;2022-11-15T11:31:57;17.10;1.00
75821;DHT22;64454;51.984;9.838;2022-11-15T11:34:50;17.00;1.00
75821;DHT22;64454;51.984;9.838;2022-11-15T11:37:31;17.00;1.00
75821;DHT22;64454;51.984;9.838;2022-11-15T11:40:14;17.00;1.00
75821;DHT22;64454;51.984;9.838;2022-11-15T11:42:55;17.00;1.00
75821;DHT22;64454;51.984;9.838;2022-11-15T11:45:47;17.00;1.00
75821;DHT22;64454;51.984;9.838;2022-11-15T11:48:40;17.20;1.00
75821;DHT22;64454;51.984;9.838;2022-11-15T11:51:14;17.40;1.00
75821;DHT22;64454;51.984;9.838;2022-11-15T11:53:49;17.50;1.00
75821;DHT22;64454;51.984;9.838;2022-11-15T11:56:25;17.60;1.00
75821;DHT22;64454;51.984;9.838;2022-11-15T11:58:59;17.60;1.00
75821;DHT22;64454;51.984;9.838;2022-11-15T12:01:34;17.80;1.00
75821;DHT22;64454;51.984;9.838;2022-11-15T12:04:11;17.90;1.00
75821;DHT22;64454;51.984;9.838;2022-11-15T12:06:47;17.80;1.00
75821;DHT22;64454;51.984;9.838;2022-11-15T12:09:21;17.80;1.00
75821;DHT22;64454;51.984;9.838;2022-11-15T12:12:02;17.60;1.00
75821;DHT22;64454;51.984;9.838;2022-11-15T12:14:39;17.60;1.00
75821;DHT22;64454;51.984;9.838;2022-11-15T12:17:11;17.40;1.00
75821;DHT22;64454;51.984;9.838;2022-11-15T12:19:40;17.20;1.00
75821;DHT22;64454;51.984;9.838;2022-11-15T12:22:12;17.00;1.00
75821;DHT22;64454;51.984;9.838;2022-11-15T12:24:50;16.80;1.00
75821;DHT22;64454;51.984;9.838;2022-11-15T12:27:27;16.50;1.00
75821;DHT22;64454;51.984;9.838;2022-11-15T12:30:02;16.60;1.00
75821;DHT22;64454;51.984;9.838;2022-11-15T12:32:38;16.70;1.00
75821;DHT22;64454;51.984;9.838;2022-11-15T12:35:24;17.00;1.00
75821;DHT22;64454;51.984;9.838;2022-11-15T12:37:54;17.30;1.00
75821;DHT22;64454;51.984;9.838;2022-11-15T12:40:36;17.40;1.00
75821;DHT22;64454;51.984;9.838;2022-11-15T12:46:13;17.70;1.00
75821;DHT22;64454;51.984;9.838;2022-11-15T12:48:52;17.80;1.00
75821;DHT22;64454;51.984;9.838;2022-11-15T12:55:00;18.30;1.00
75821;DHT22;64454;51.984;9.838;2022-11-15T12:57:40;18.70;1.00
75821;DHT22;64454;51.984;9.838;2022-11-15T13:03:25;18.50;1.00
75821;DHT22;64454;51.984;9.838;2022-11-15T13:05:59;18.20;1.00
75821;DHT22;64454;51.984;9.838;2022-11-15T13:08:44;18.10;1.00
75821;DHT22;64454;51.984;9.838;2022-11-15T13:11:48;17.80;1.00
75821;DHT22;64454;51.984;9.838;2022-11-15T13:14:38;17.70;1.00
75821;DHT22;64454;51.984;9.838;2022-11-15T13:17:29;17.60;1.00
75821;DHT22;64454;51.984;9.838;2022-11-15T13:20:02;17.30;1.00
75821;DHT22;64454;51.984;9.838;2022-11-15T13:22:45;17.20;1.00
75821;DHT22;64454;51.984;9.838;2022-11-15T13:28:43;16.90;1.00
75821;DHT22;64454;51.984;9.838;2022-11-15T13:31:22;16.70;1.00
75821;DHT22;64454;51.984;9.838;2022-11-15T13:33:51;16.60;1.00
75821;DHT22;64454;51.984;9.838;2022-11-15T13:36:21;16.50;1.00
75821;DHT22;64454;51.984;9.838;2022-11-15T13:38:56;16.50;1.00
75821;DHT22;64454;51.984;9.838;2022-11-15T13:41:28;16.40;1.00
75821;DHT22;64454;51.984;9.838;2022-11-15T13:43:57;16.40;1.00
75821;DHT22;64454;51.984;9.838;2022-11-15T13:46:26;16.50;1.00
75821;DHT22;64454;51.984;9.838;2022-11-15T13:48:58;16.40;1.00
75821;DHT22;64454;51.984;9.838;2022-11-15T13:51:38;16.50;1.00
75821;DHT22;64454;51.984;9.838;2022-11-15T13:54:16;16.50;1.00
75821;DHT22;64454;51.984;9.838;2022-11-15T13:56:51;16.60;1.00
75821;DHT22;64454;51.984;9.838;2022-11-15T13:59:25;16.60;1.00
75821;DHT22;64454;51.984;9.838;2022-11-15T14:01:54;16.60;1.00
75821;DHT22;64454;51.984;9.838;2022-11-15T14:04:24;16.50;1.00
75821;DHT22;64454;51.984;9.838;2022-11-15T14:06:56;16.50;1.00
75821;DHT22;64454;51.984;9.838;2022-11-15T14:09:31;16.60;1.00
75821;DHT22;64454;51.984;9.838;2022-11-15T14:14:53;16.80;1.00
75821;DHT22;64454;51.984;9.838;2022-11-15T14:17:37;16.90;1.00
75821;DHT22;64454;51.984;9.838;2022-11-15T14:20:29;16.80;1.00
75821;DHT22;64454;51.984;9.838;2022-11-15T14:22:59;16.70;1.00
75821;DHT22;64454;51.984;9.838;2022-11-15T14:25:29;16.60;1.00
75821;DHT22;64454;51.984;9.838;2022-11-15T14:28:16;16.50;1.00
75821;DHT22;64454;51.984;9.838;2022-11-15T14:30:57;16.40;1.00
75821;DHT22;64454;51.984;9.838;2022-11-15T14:33:28;16.20;1.00
75821;DHT22;64454;51.984;9.838;2022-11-15T14:35:59;16.10;1.00
75821;DHT22;64454;51.984;9.838;2022-11-15T14:38:30;16.00;1.00
75821;DHT22;64454;51.984;9.838;2022-11-15T14:40:57;15.90;1.00
75821;DHT22;64454;51.984;9.838;2022-11-15T14:43:26;15.90;1.00
75821;DHT22;64454;51.984;9.838;2022-11-15T14:45:53;15.80;1.00
75821;DHT22;64454;51.984;9.838;2022-11-15T14:48:20;15.70;1.00
75821;DHT22;64454;51.984;9.838;2022-11-15T14:50:47;15.70;1.00
75821;DHT22;64454;51.984;9.838;2022-11-15T14:53:16;15.60;1.00
75821;DHT22;64454;51.984;9.838;2022-11-15T14:55:44;15.60;1.00
75821;DHT22;64454;51.984;9.838;2022-11-15T14:58:11;15.50;1.00
75821;DHT22;64454;51.984;9.838;2022-11-15T15:00:41;15.50;1.00
75821;DHT22;64454;51.984;9.838;2022-11-15T15:03:08;15.50;1.00
75821;DHT22;64454;51.984;9.838;2022-11-15T15:05:38;15.50;1.00
75821;DHT22;64454;51.984;9.838;2022-11-15T15:08:06;15.50;1.00
75821;DHT22;64454;51.984;9.838;2022-11-15T15:10:36;15.30;1.00
75821;DHT22;64454;51.984;9.838;2022-11-15T15:13:05;15.30;1.00
75821;DHT22;64454;51.984;9.838;2022-11-15T15:15:34;15.20;1.00
75821;DHT22;64454;51.984;9.838;2022-11-15T15:18:04;15.10;1.00
75821;DHT22;64454;51.984;9.838;2022-11-15T15:20:34;15.10;1.00
75821;DHT22;64454;51.984;9.838;2022-11-15T15:23:03;15.00;1.00
75821;DHT22;64454;51.984;9.838;2022-11-15T15:25:32;15.00;1.00
75821;DHT22;64454;51.984;9.838;2022-11-15T15:28:00;14.90;1.00
75821;DHT22;64454;51.984;9.838;2022-11-15T15:30:29;14.80;1.00
75821;DHT22;64454;51.984;9.838;2022-11-15T15:32:56;14.70;1.00
75821;DHT22;64454;51.984;9.838;2022-11-15T15:35:29;14.70;1.00
75821;DHT22;64454;51.984;9.838;2022-11-15T15:37:58;14.70;1.00
75821;DHT22;64454;51.984;9.838;2022-11-15T15:40:27;14.70;1.00
75821;DHT22;64454;51.984;9.838;2022-11-15T15:42:55;14.70;1.00
75821;DHT22;64454;51.984;9.838;2022-11-15T15:45:24;14.70;1.00
75821;DHT22;64454;51.984;9.838;2022-11-15T15:47:52;14.70;1.00
75821;DHT22;64454;51.984;9.838;2022-11-15T15:50:24;14.70;1.00
75821;DHT22;64454;51.984;9.838;2022-11-15T15:52:55;14.70;1.00
75821;DHT22;64454;51.984;9.838;2022-11-15T15:55:24;14.60;1.00
75821;DHT22;64454;51.984;9.838;2022-11-15T15:57:51;14.60;1.00
75821;DHT22;64454;51.984;9.838;2022-11-15T16:00:20;14.60;1.00
75821;DHT22;64454;51.984;9.838;2022-11-15T16:02:48;14.60;1.00
75821;DHT22;64454;51.984;9.838;2022-11-15T16:05:16;14.60;1.00
75821;DHT22;64454;51.984;9.838;2022-11-15T16:07:45;14.50;1.00
75821;DHT22;64454;51.984;9.838;2022-11-15T16:10:19;14.40;1.00
75821;DHT22;64454;51.984;9.838;2022-11-15T16:12:48;14.40;1.00
75821;DHT22;64454;51.984;9.838;2022-11-15T16:15:15;14.20;1.00
75821;DHT22;64454;51.984;9.838;2022-11-15T16:17:47;14.20;1.00
75821;DHT22;64454;51.984;9.838;2022-11-15T16:20:31;14.10;1.00
75821;DHT22;64454;51.984;9.838;2022-11-15T16:23:03;14.10;1.00
75821;DHT22;64454;51.984;9.838;2022-11-15T16:25:34;14.10;1.00
75821;DHT22;64454;51.984;9.838;2022-11-15T16:28:05;14.00;1.00
75821;DHT22;64454;51.984;9.838;2022-11-15T16:30:34;14.10;1.00
75821;DHT22;64454;51.984;9.838;2022-11-15T16:33:01;14.00;1.00
75821;DHT22;64454;51.984;9.838;2022-11-15T16:35:28;14.00;1.00